sensor_id;sensor_type;location;lat;lon;timestamp;P1;durP1;ratioP1;P2;durP2;ratioP2
22017;SDS011;11173;51.050;7.108;2024-03-22T00:06:24;2.78;;;2.58;;
22017;SDS011;11173;51.050;7.108;2024-03-22T00:16:24;2.20;;;2.00;;
22017;SDS011;11173;51.050;7.108;2024-03-22T00:26:24;2.60;;;2.40;;
22017;SDS011;11173;51.050;7.108;2024-03-22T00:36:25;2.55;;;2.35;;
22017;SDS011;11173;51.050;7.108;2024-03-22T00:46:25;2.30;;;2.10;;
22017;SDS011;11173;51.050;7.108;2024-03-22T00:56:25;2.10;;;1.90;;
22017;SDS011;11173;51.050;7.108;2024-03-22T01:06:26;1.88;;;1.70;;
22017;SDS011;11173;51.050;7.108;2024-03-22T01:16:27;2.25;;;2.05;;
22017;SDS011;11173;51.050;7.108;2024-03-22T01:26:27;2.47;;;2.28;;
22017;SDS011;11173;51.050;7.108;2024-03-22T01:36:27;2.40;;;2.20;;
22017;SDS011;11173;51.050;7.108;2024-03-22T01:46:28;1.67;;;1.58;;
22017;SDS011;11173;51.050;7.108;2024-03-22T01:56:28;2.28;;;2.08;;
22017;SDS011;11173;51.050;7.108;2024-03-22T02:06:28;2.17;;;1.98;;
22017;SDS011;11173;51.050;7.108;2024-03-22T02:16:29;2.30;;;2.10;;
22017;SDS011;11173;51.050;7.108;2024-03-22T02:26:29;1.85;;;1.65;;
22017;SDS011;11173;51.050;7.108;2024-03-22T02:36:30;1.83;;;1.73;;
22017;SDS011;11173;51.050;7.108;2024-03-22T02:46:30;1.58;;;1.48;;
22017;SDS011;11173;51.050;7.108;2024-03-22T02:56:30;1.45;;;1.35;;
22017;SDS011;11173;51.050;7.108;2024-03-22T03:06:31;1.40;;;1.30;;
22017;SDS011;11173;51.050;7.108;2024-03-22T03:16:31;0.98;;;0.88;;
22017;SDS011;11173;51.050;7.108;2024-03-22T03:26:31;1.30;;;1.20;;
22017;SDS011;11173;51.050;7.108;2024-03-22T03:36:31;1.02;;;0.82;;
22017;SDS011;11173;51.050;7.108;2024-03-22T03:46:32;0.85;;;0.85;;
22017;SDS011;11173;51.050;7.108;2024-03-22T03:56:32;0.80;;;0.80;;
22017;SDS011;11173;51.050;7.108;2024-03-22T04:06:32;1.50;;;1.23;;
22017;SDS011;11173;51.050;7.108;2024-03-22T04:16:34;1.13;;;1.08;;
22017;SDS011;11173;51.050;7.108;2024-03-22T04:26:34;1.40;;;1.30;;
22017;SDS011;11173;51.050;7.108;2024-03-22T04:36:34;1.30;;;1.20;;
22017;SDS011;11173;51.050;7.108;2024-03-22T04:46:35;1.63;;;1.52;;
22017;SDS011;11173;51.050;7.108;2024-03-22T04:56:35;1.38;;;1.20;;
22017;SDS011;11173;51.050;7.108;2024-03-22T05:06:35;1.08;;;1.08;;
22017;SDS011;11173;51.050;7.108;2024-03-22T05:16:36;1.00;;;1.00;;
22017;SDS011;11173;51.050;7.108;2024-03-22T05:26:36;1.38;;;1.27;;
22017;SDS011;11173;51.050;7.108;2024-03-22T05:36:36;1.60;;;1.40;;
22017;SDS011;11173;51.050;7.108;2024-03-22T05:46:37;1.20;;;1.08;;
22017;SDS011;11173;51.050;7.108;2024-03-22T05:56:37;1.63;;;1.20;;
22017;SDS011;11173;51.050;7.108;2024-03-22T06:06:39;1.40;;;1.30;;
22017;SDS011;11173;51.050;7.108;2024-03-22T06:16:40;1.35;;;1.25;;
22017;SDS011;11173;51.050;7.108;2024-03-22T06:26:40;0.90;;;0.90;;
22017;SDS011;11173;51.050;7.108;2024-03-22T06:36:41;0.80;;;0.80;;
22017;SDS011;11173;51.050;7.108;2024-03-22T06:46:42;0.93;;;0.90;;
22017;SDS011;11173;51.050;7.108;2024-03-22T06:56:42;1.05;;;0.98;;
22017;SDS011;11173;51.050;7.108;2024-03-22T07:06:42;0.80;;;0.80;;
22017;SDS011;11173;51.050;7.108;2024-03-22T07:16:43;1.20;;;0.88;;
22017;SDS011;11173;51.050;7.108;2024-03-22T07:26:43;0.70;;;0.70;;
22017;SDS011;11173;51.050;7.108;2024-03-22T07:36:43;0.82;;;0.82;;
22017;SDS011;11173;51.050;7.108;2024-03-22T07:46:44;1.00;;;1.00;;
22017;SDS011;11173;51.050;7.108;2024-03-22T07:56:45;1.58;;;1.40;;
22017;SDS011;11173;51.050;7.108;2024-03-22T08:06:46;2.45;;;2.20;;
22017;SDS011;11173;51.050;7.108;2024-03-22T08:16:46;2.55;;;2.35;;
22017;SDS011;11173;51.050;7.108;2024-03-22T08:26:47;3.17;;;2.83;;
22017;SDS011;11173;51.050;7.108;2024-03-22T08:36:47;5.47;;;4.97;;
22017;SDS011;11173;51.050;7.108;2024-03-22T08:46:47;5.72;;;4.63;;
22017;SDS011;11173;51.050;7.108;2024-03-22T08:56:48;6.47;;;5.63;;
22017;SDS011;11173;51.050;7.108;2024-03-22T09:06:49;7.43;;;6.68;;
22017;SDS011;11173;51.050;7.108;2024-03-22T09:16:49;10.63;;;4.75;;
22017;SDS011;11173;51.050;7.108;2024-03-22T09:26:49;5.88;;;4.80;;
22017;SDS011;11173;51.050;7.108;2024-03-22T09:36:49;4.93;;;4.43;;
22017;SDS011;11173;51.050;7.108;2024-03-22T09:46:50;6.05;;;4.93;;
22017;SDS011;11173;51.050;7.108;2024-03-22T09:56:50;6.88;;;4.90;;
22017;SDS011;11173;51.050;7.108;2024-03-22T10:06:51;3.67;;;3.38;;
22017;SDS011;11173;51.050;7.108;2024-03-22T10:16:52;5.18;;;3.80;;
22017;SDS011;11173;51.050;7.108;2024-03-22T10:26:55;3.40;;;3.10;;
22017;SDS011;11173;51.050;7.108;2024-03-22T10:36:56;3.22;;;2.92;;
22017;SDS011;11173;51.050;7.108;2024-03-22T10:46:57;4.30;;;3.55;;
22017;SDS011;11173;51.050;7.108;2024-03-22T10:57:01;4.97;;;4.03;;
22017;SDS011;11173;51.050;7.108;2024-03-22T11:07:02;4.10;;;3.80;;
22017;SDS011;11173;51.050;7.108;2024-03-22T11:17:03;5.47;;;4.80;;
22017;SDS011;11173;51.050;7.108;2024-03-22T11:27:04;3.35;;;3.08;;
22017;SDS011;11173;51.050;7.108;2024-03-22T11:37:05;4.07;;;3.50;;
22017;SDS011;11173;51.050;7.108;2024-03-22T11:47:07;3.85;;;3.40;;
22017;SDS011;11173;51.050;7.108;2024-03-22T11:57:10;4.47;;;3.83;;
22017;SDS011;11173;51.050;7.108;2024-03-22T12:07:11;4.50;;;4.10;;
22017;SDS011;11173;51.050;7.108;2024-03-22T12:17:12;6.63;;;5.80;;
22017;SDS011;11173;51.050;7.108;2024-03-22T12:27:12;6.13;;;4.88;;
22017;SDS011;11173;51.050;7.108;2024-03-22T12:37:13;5.75;;;5.15;;
22017;SDS011;11173;51.050;7.108;2024-03-22T12:47:13;5.43;;;4.75;;
22017;SDS011;11173;51.050;7.108;2024-03-22T12:57:13;5.55;;;4.70;;
22017;SDS011;11173;51.050;7.108;2024-03-22T13:07:14;9.45;;;6.30;;
22017;SDS011;11173;51.050;7.108;2024-03-22T13:17:14;8.27;;;6.28;;
22017;SDS011;11173;51.050;7.108;2024-03-22T13:27:14;7.10;;;6.25;;
22017;SDS011;11173;51.050;7.108;2024-03-22T13:37:14;6.53;;;5.80;;
22017;SDS011;11173;51.050;7.108;2024-03-22T13:47:15;8.48;;;7.10;;
22017;SDS011;11173;51.050;7.108;2024-03-22T13:57:15;8.07;;;6.43;;
22017;SDS011;11173;51.050;7.108;2024-03-22T14:07:15;7.13;;;6.43;;
22017;SDS011;11173;51.050;7.108;2024-03-22T14:17:16;10.95;;;6.90;;
22017;SDS011;11173;51.050;7.108;2024-03-22T14:27:16;9.82;;;8.30;;
22017;SDS011;11173;51.050;7.108;2024-03-22T14:37:16;7.10;;;6.13;;
22017;SDS011;11173;51.050;7.108;2024-03-22T14:47:17;9.95;;;5.72;;
22017;SDS011;11173;51.050;7.108;2024-03-22T14:57:17;6.93;;;6.05;;
22017;SDS011;11173;51.050;7.108;2024-03-22T15:07:17;6.05;;;5.45;;
22017;SDS011;11173;51.050;7.108;2024-03-22T15:17:18;6.18;;;5.57;;
22017;SDS011;11173;51.050;7.108;2024-03-22T15:27:22;10.90;;;6.90;;
22017;SDS011;11173;51.050;7.108;2024-03-22T15:37:22;9.73;;;8.13;;
22017;SDS011;11173;51.050;7.108;2024-03-22T15:47:24;10.50;;;8.40;;
22017;SDS011;11173;51.050;7.108;2024-03-22T15:57:24;6.80;;;6.10;;
22017;SDS011;11173;51.050;7.108;2024-03-22T16:07:24;6.18;;;5.25;;
22017;SDS011;11173;51.050;7.108;2024-03-22T16:17:25;6.25;;;5.65;;
22017;SDS011;11173;51.050;7.108;2024-03-22T16:27:26;6.40;;;5.55;;
22017;SDS011;11173;51.050;7.108;2024-03-22T16:37:26;5.70;;;5.10;;
22017;SDS011;11173;51.050;7.108;2024-03-22T16:47:26;5.05;;;4.65;;
22017;SDS011;11173;51.050;7.108;2024-03-22T16:57:27;5.43;;;4.78;;
22017;SDS011;11173;51.050;7.108;2024-03-22T17:07:27;4.38;;;4.00;;
22017;SDS011;11173;51.050;7.108;2024-03-22T17:17:28;5.80;;;5.05;;
22017;SDS011;11173;51.050;7.108;2024-03-22T17:27:28;6.95;;;5.43;;
22017;SDS011;11173;51.050;7.108;2024-03-22T17:37:29;7.20;;;5.90;;
22017;SDS011;11173;51.050;7.108;2024-03-22T17:47:29;4.65;;;4.25;;
22017;SDS011;11173;51.050;7.108;2024-03-22T17:57:30;4.72;;;4.28;;
22017;SDS011;11173;51.050;7.108;2024-03-22T18:07:31;4.85;;;4.45;;
22017;SDS011;11173;51.050;7.108;2024-03-22T18:17:32;5.20;;;3.42;;
22017;SDS011;11173;51.050;7.108;2024-03-22T18:27:32;4.65;;;4.30;;
22017;SDS011;11173;51.050;7.108;2024-03-22T18:37:32;5.20;;;4.70;;
22017;SDS011;11173;51.050;7.108;2024-03-22T18:47:32;13.90;;;9.30;;
22017;SDS011;11173;51.050;7.108;2024-03-22T18:57:33;5.70;;;5.20;;
22017;SDS011;11173;51.050;7.108;2024-03-22T19:07:33;3.50;;;3.30;;
22017;SDS011;11173;51.050;7.108;2024-03-22T19:17:33;2.85;;;2.65;;
22017;SDS011;11173;51.050;7.108;2024-03-22T19:27:34;3.35;;;3.10;;
22017;SDS011;11173;51.050;7.108;2024-03-22T19:37:34;2.70;;;2.50;;
22017;SDS011;11173;51.050;7.108;2024-03-22T19:47:34;2.30;;;2.20;;
22017;SDS011;11173;51.050;7.108;2024-03-22T19:57:35;1.70;;;1.60;;
22017;SDS011;11173;51.050;7.108;2024-03-22T20:07:35;2.60;;;2.40;;
22017;SDS011;11173;51.050;7.108;2024-03-22T20:17:35;3.28;;;3.08;;
22017;SDS011;11173;51.050;7.108;2024-03-22T20:27:36;3.67;;;3.47;;
